Terminal Aerodrome Forecast
Issued by NWS

Home | Current Version | Previous Version | Text Only | Print | Product List | Glossary On
Versions: 1 2 3 4 5 6 7 8 9 10 11 12 13 14 15 16 17 18 19 20 21
000
FTUS43 KLSX 122123 AAA
TAFUIN
TAF AMD
KUIN 122123Z 1221/1318 29008KT P6SM FEW250
     FM130300 23005KT P6SM FEW200
     FM131000 19008KT P6SM SCT090 WS020/23035KT
     FM131600 24013G21KT P6SM SCT250=

USA.gov is the U.S. government's official web portal to all federal, state and local government web resources and services.